createdAt,value
2023-04-16T00:02:15.959Z,2.28
2023-04-16T00:05:03.446Z,2.60
2023-04-16T00:07:43.847Z,1.65
2023-04-16T00:10:11.104Z,1.83
2023-04-16T00:12:38.089Z,3.33
2023-04-16T00:15:05.643Z,1.88
2023-04-16T00:17:32.831Z,2.03
2023-04-16T00:20:20.463Z,2.28
2023-04-16T00:23:07.852Z,2.70
2023-04-16T00:25:34.813Z,1.95
2023-04-16T00:28:01.900Z,2.40
2023-04-16T00:30:28.886Z,2.20
2023-04-16T00:32:56.027Z,3.10
2023-04-16T00:35:23.224Z,2.67
2023-04-16T00:37:50.125Z,2.63
2023-04-16T00:40:17.182Z,2.75
2023-04-16T00:43:04.438Z,2.85
2023-04-16T00:46:07.379Z,2.85
2023-04-16T00:48:48.989Z,2.53
2023-04-16T00:51:16.680Z,2.63
2023-04-16T00:53:45.679Z,2.58
2023-04-16T00:56:13.569Z,2.90
2023-04-16T00:58:40.792Z,2.42
2023-04-16T01:01:08.038Z,2.88
2023-04-16T01:03:45.871Z,2.72
2023-04-16T01:06:13.747Z,2.15
2023-04-16T01:08:40.833Z,2.30
2023-04-16T01:11:08.075Z,2.88
2023-04-16T01:13:39.798Z,2.58
2023-04-16T01:16:08.526Z,3.10
2023-04-16T01:18:37.001Z,3.97
2023-04-16T01:21:24.404Z,3.13
2023-04-16T01:24:05.550Z,3.30
2023-04-16T01:26:36.220Z,3.15
2023-04-16T01:29:03.157Z,3.53
2023-04-16T01:31:30.190Z,4.07
2023-04-16T01:34:19.937Z,3.88
2023-04-16T01:36:46.832Z,3.03
2023-04-16T01:39:15.886Z,3.75
2023-04-16T01:42:03.480Z,2.85
2023-04-16T01:44:43.984Z,3.15
2023-04-16T01:47:10.925Z,3.72
2023-04-16T01:49:38.075Z,3.83
2023-04-16T01:52:05.118Z,3.53
2023-04-16T01:54:32.224Z,2.33
2023-04-16T01:56:59.171Z,3.30
2023-04-16T01:59:26.226Z,3.67
2023-04-16T02:01:53.278Z,4.00
2023-04-16T02:04:20.380Z,4.38
2023-04-16T02:07:07.474Z,2.83
2023-04-16T02:10:01.618Z,3.67
2023-04-16T02:12:42.129Z,3.28
2023-04-16T02:15:09.591Z,3.72
2023-04-16T02:17:36.887Z,3.63
2023-04-16T02:23:07.310Z,3.85
2023-04-16T02:25:42.551Z,4.07
2023-04-16T02:28:13.409Z,5.25
2023-04-16T02:30:42.829Z,4.30
2023-04-16T02:33:11.401Z,4.10
2023-04-16T02:35:41.244Z,4.38
2023-04-16T02:38:08.650Z,3.92
2023-04-16T02:40:36.531Z,3.67
2023-04-16T02:43:23.456Z,3.90
2023-04-16T02:46:04.284Z,3.53
2023-04-16T02:48:31.857Z,3.80
2023-04-16T02:50:58.947Z,4.60
2023-04-16T02:53:25.902Z,5.18
2023-04-16T02:55:56.553Z,4.95
2023-04-16T02:58:26.092Z,4.28
2023-04-16T03:01:13.522Z,4.82
2023-04-16T03:04:14.481Z,4.40
2023-04-16T03:07:15.456Z,4.25
2023-04-16T03:10:11.450Z,4.30
2023-04-16T03:13:12.577Z,4.97
2023-04-16T03:15:52.969Z,4.90
2023-04-16T03:18:20.201Z,4.53
2023-04-16T03:21:02.446Z,5.70
2023-04-16T03:23:43.052Z,6.20
2023-04-16T03:26:10.264Z,6.45
2023-04-16T03:28:37.171Z,5.85
2023-04-16T03:31:04.707Z,7.55
2023-04-16T03:33:31.692Z,6.13
2023-04-16T03:35:58.788Z,6.07
2023-04-16T03:38:28.760Z,4.93
2023-04-16T03:40:58.847Z,5.53
2023-04-16T03:43:46.492Z,4.85
2023-04-16T03:46:27.161Z,6.60
2023-04-16T03:48:54.687Z,5.47
2023-04-16T03:51:22.081Z,5.32
2023-04-16T03:53:49.011Z,4.45
2023-04-16T03:56:16.683Z,6.63
2023-04-16T03:58:43.603Z,5.85
2023-04-16T04:01:10.814Z,5.63
2023-04-16T04:03:38.652Z,6.63
2023-04-16T04:06:09.410Z,6.03
2023-04-16T04:08:36.583Z,6.03
2023-04-16T04:11:04.948Z,5.93
2023-04-16T04:13:34.147Z,5.68
2023-04-16T04:16:01.560Z,5.13
2023-04-16T04:18:29.184Z,5.65
2023-04-16T04:21:20.509Z,5.15
2023-04-16T04:27:02.433Z,6.15
2023-04-16T04:29:29.374Z,5.30
2023-04-16T04:31:56.518Z,6.47
2023-04-16T04:34:23.645Z,6.22
2023-04-16T04:36:51.196Z,6.57
2023-04-16T04:39:20.678Z,5.53
2023-04-16T04:42:10.499Z,5.85
2023-04-16T04:44:51.243Z,4.45
2023-04-16T04:47:31.547Z,5.30
2023-04-16T04:50:12.320Z,5.40
2023-04-16T04:52:39.293Z,5.38
2023-04-16T04:55:07.917Z,6.20
2023-04-16T04:57:38.142Z,4.90
2023-04-16T05:00:06.472Z,5.10
2023-04-16T05:02:42.329Z,5.80
2023-04-16T05:05:09.617Z,7.82
2023-04-16T05:07:39.588Z,5.90
2023-04-16T05:10:07.904Z,6.22
2023-04-16T05:12:35.005Z,5.80
2023-04-16T05:15:02.173Z,5.78
2023-04-16T05:17:29.193Z,5.95
2023-04-16T05:20:16.595Z,5.07
2023-04-16T05:23:09.446Z,5.30
2023-04-16T05:25:56.530Z,5.00
2023-04-16T05:28:57.531Z,4.53
2023-04-16T05:31:38.614Z,4.72
2023-04-16T05:34:07.547Z,4.93
2023-04-16T05:36:35.376Z,4.32
2023-04-16T05:39:02.519Z,5.07
2023-04-16T05:41:49.544Z,4.07
2023-04-16T05:44:30.487Z,5.20
2023-04-16T05:46:57.417Z,5.40
2023-04-16T05:49:24.334Z,5.18
2023-04-16T05:51:51.223Z,4.15
2023-04-16T05:54:18.311Z,4.35
2023-04-16T05:56:45.588Z,4.88
2023-04-16T05:59:12.546Z,3.88
2023-04-16T06:01:39.484Z,4.07
2023-04-16T06:04:06.598Z,2.97
2023-04-16T06:06:33.660Z,3.42
2023-04-16T06:09:00.584Z,3.65
2023-04-16T06:11:27.689Z,4.20
2023-04-16T06:14:14.613Z,4.40
2023-04-16T06:16:55.244Z,3.85
2023-04-16T06:19:22.183Z,3.90
2023-04-16T06:22:03.577Z,4.32
2023-04-16T06:24:44.584Z,4.90
2023-04-16T06:27:11.521Z,4.43
2023-04-16T06:29:41.579Z,4.53
2023-04-16T06:32:28.693Z,4.35
2023-04-16T06:35:29.553Z,4.57
2023-04-16T06:38:10.199Z,4.25
2023-04-16T06:40:37.648Z,4.55
2023-04-16T06:43:24.570Z,4.82
2023-04-16T06:46:05.376Z,5.28
2023-04-16T06:48:32.405Z,4.60
2023-04-16T06:50:59.458Z,4.78
2023-04-16T06:53:26.396Z,4.68
2023-04-16T06:55:53.441Z,5.07
2023-04-16T06:58:40.713Z,4.40
2023-04-16T07:01:41.589Z,4.55
2023-04-16T07:04:20.828Z,4.85
2023-04-16T07:06:47.794Z,4.28
2023-04-16T07:09:14.807Z,4.28
2023-04-16T07:11:42.272Z,4.90
2023-04-16T07:14:09.542Z,5.03
2023-04-16T07:16:37.934Z,5.10
2023-04-16T07:19:07.132Z,4.07
2023-04-16T07:21:54.633Z,4.53
2023-04-16T07:24:36.019Z,4.15
2023-04-16T07:27:03.320Z,4.65
2023-04-16T07:29:30.917Z,4.35
2023-04-16T07:31:58.189Z,4.65
2023-04-16T07:34:25.243Z,5.35
2023-04-16T07:36:52.175Z,4.93
2023-04-16T07:39:19.134Z,4.38
2023-04-16T07:42:06.708Z,5.22
2023-04-16T07:45:01.889Z,4.78
2023-04-16T07:47:43.995Z,3.95
2023-04-16T07:50:11.954Z,4.30
2023-04-16T07:52:41.395Z,4.47
2023-04-16T07:55:09.275Z,4.25
2023-04-16T07:57:41.060Z,3.90
2023-04-16T08:00:09.368Z,4.85
2023-04-16T08:02:43.995Z,4.45
2023-04-16T08:05:12.698Z,4.05
2023-04-16T08:07:39.748Z,3.80
2023-04-16T08:10:09.929Z,3.50
2023-04-16T08:12:37.142Z,4.32
2023-04-16T08:15:04.720Z,4.57
2023-04-16T08:17:34.506Z,4.35
2023-04-16T08:20:19.265Z,3.13
2023-04-16T08:23:10.586Z,5.72
2023-04-16T08:25:37.560Z,5.15
2023-04-16T08:28:05.064Z,5.43
2023-04-16T08:30:32.157Z,5.22
2023-04-16T08:33:20.625Z,5.95
2023-04-16T08:36:21.730Z,5.68
2023-04-16T08:39:02.252Z,5.72
2023-04-16T08:41:51.668Z,6.03
2023-04-16T08:44:35.476Z,4.57
2023-04-16T08:47:04.443Z,6.78
2023-04-16T08:49:36.508Z,8.13
2023-04-16T08:52:14.667Z,7.13
2023-04-16T08:55:10.179Z,6.45
2023-04-16T08:58:10.681Z,6.95
2023-04-16T09:01:11.688Z,6.03
2023-04-16T09:04:13.449Z,5.38
2023-04-16T09:06:41.758Z,6.00
2023-04-16T09:09:09.659Z,4.85
2023-04-16T09:11:39.205Z,4.68
2023-04-16T09:14:26.655Z,3.80
2023-04-16T09:17:07.855Z,3.85
2023-04-16T09:19:34.869Z,4.00
2023-04-16T09:22:21.702Z,3.75
2023-04-16T09:25:02.427Z,3.15
2023-04-16T09:27:30.660Z,3.75
2023-04-16T09:29:57.960Z,4.63
2023-04-16T09:32:29.924Z,3.75
2023-04-16T09:34:59.086Z,3.03
2023-04-16T09:37:29.909Z,3.58
2023-04-16T09:40:04.153Z,3.80
2023-04-16T09:42:53.754Z,3.78
2023-04-16T09:45:49.004Z,3.83
2023-04-16T09:48:16.446Z,2.70
2023-04-16T09:50:52.958Z,3.78
2023-04-16T09:53:28.204Z,3.90
2023-04-16T09:55:59.997Z,2.17
2023-04-16T09:58:49.685Z,2.75
2023-04-16T10:01:31.499Z,2.28
2023-04-16T10:04:00.128Z,2.03
2023-04-16T10:06:29.374Z,3.28
2023-04-16T10:08:57.299Z,3.35
2023-04-16T10:11:25.777Z,2.63
2023-04-16T10:13:53.723Z,2.85
2023-04-16T10:16:23.043Z,2.40
2023-04-16T10:18:50.083Z,2.80
2023-04-16T10:21:40.730Z,2.25
2023-04-16T10:24:46.756Z,3.28
2023-04-16T10:27:28.196Z,2.63
2023-04-16T10:29:56.714Z,2.90
2023-04-16T10:32:43.884Z,2.65
2023-04-16T10:35:25.762Z,2.70
2023-04-16T10:37:57.173Z,4.07
2023-04-16T10:40:25.763Z,2.60
2023-04-16T10:43:13.736Z,3.05
2023-04-16T10:45:54.627Z,2.95
2023-04-16T10:48:22.256Z,3.53
2023-04-16T10:51:00.256Z,3.58
2023-04-16T10:53:27.894Z,2.85
2023-04-16T10:56:04.664Z,3.15
2023-04-16T10:58:35.053Z,3.38
2023-04-16T11:01:07.188Z,2.63
2023-04-16T11:03:34.233Z,3.35
2023-04-16T11:06:14.735Z,2.40
2023-04-16T11:08:54.019Z,2.22
2023-04-16T11:11:22.839Z,3.13
2023-04-16T11:14:09.804Z,2.58
2023-04-16T11:17:10.845Z,2.80
2023-04-16T11:20:17.473Z,2.95
2023-04-16T11:23:24.739Z,3.60
2023-04-16T11:26:29.316Z,3.33
2023-04-16T11:28:57.297Z,2.38
2023-04-16T11:31:24.572Z,4.65
2023-04-16T11:33:51.708Z,2.55
2023-04-16T11:36:18.801Z,3.53
2023-04-16T11:38:47.714Z,3.00
2023-04-16T11:41:34.790Z,3.13
2023-04-16T11:44:37.827Z,3.15
2023-04-16T11:47:38.476Z,3.35
2023-04-16T11:50:17.770Z,4.57
2023-04-16T11:52:44.819Z,3.88
2023-04-16T11:55:12.239Z,2.55
2023-04-16T11:57:39.333Z,3.15
2023-04-16T12:00:14.063Z,4.13
2023-04-16T12:02:46.172Z,3.45
2023-04-16T12:05:35.185Z,3.55
2023-04-16T12:08:04.269Z,3.38
2023-04-16T12:10:35.232Z,2.58
2023-04-16T12:13:16.158Z,2.75
2023-04-16T12:15:47.819Z,2.40
2023-04-16T12:18:18.629Z,2.47
2023-04-16T12:21:05.857Z,3.00
2023-04-16T12:24:07.877Z,3.05
2023-04-16T12:26:52.659Z,3.72
2023-04-16T12:29:25.514Z,2.25
2023-04-16T12:31:54.137Z,3.00
2023-04-16T12:34:22.404Z,1.73
2023-04-16T12:37:09.658Z,2.67
2023-04-16T12:39:36.659Z,3.08
2023-04-16T12:42:23.794Z,2.90
2023-04-16T12:45:17.943Z,2.65
2023-04-16T12:47:58.546Z,2.28
2023-04-16T12:50:25.596Z,3.92
2023-04-16T12:52:52.648Z,2.47
2023-04-16T12:55:19.778Z,3.08
2023-04-16T12:57:48.990Z,2.00
2023-04-16T13:00:16.461Z,1.75
2023-04-16T13:03:03.954Z,2.78
2023-04-16T13:05:58.627Z,3.15
2023-04-16T13:08:25.827Z,3.60
2023-04-16T13:10:52.873Z,4.00
2023-04-16T13:13:39.908Z,4.03
2023-04-16T13:16:40.829Z,1.98
2023-04-16T13:19:21.436Z,3.60
2023-04-16T13:22:09.307Z,2.15
2023-04-16T13:24:49.412Z,1.95
2023-04-16T13:27:16.972Z,1.85
2023-04-16T13:29:44.916Z,2.78
2023-04-16T13:32:14.060Z,2.22
2023-04-16T13:34:41.123Z,1.65
2023-04-16T13:37:08.160Z,1.70
2023-04-16T13:39:35.140Z,2.05
2023-04-16T13:42:02.786Z,1.90
2023-04-16T13:44:49.833Z,1.73
2023-04-16T13:47:47.064Z,2.05
2023-04-16T13:50:27.829Z,3.10
2023-04-16T13:52:54.808Z,1.77
2023-04-16T13:55:43.873Z,3.30
2023-04-16T13:58:24.837Z,2.53
2023-04-16T14:00:52.056Z,2.17
2023-04-16T14:03:19.188Z,1.75
2023-04-16T14:05:46.327Z,2.50
2023-04-16T14:08:14.905Z,1.63
2023-04-16T14:10:41.963Z,1.05
2023-04-16T14:13:09.041Z,2.22
2023-04-16T14:15:36.148Z,1.50
2023-04-16T14:18:03.914Z,2.70
2023-04-16T14:20:50.889Z,2.58
2023-04-16T14:23:31.848Z,2.10
2023-04-16T14:26:11.868Z,2.03
2023-04-16T14:28:40.118Z,2.05
2023-04-16T14:31:07.039Z,1.40
2023-04-16T14:33:33.898Z,1.92
2023-04-16T14:36:02.978Z,1.52
2023-04-16T14:38:31.300Z,1.42
2023-04-16T14:41:00.249Z,1.52
2023-04-16T14:43:27.559Z,1.88
2023-04-16T14:45:54.645Z,1.65
2023-04-16T14:48:22.212Z,1.40
2023-04-16T14:50:49.320Z,1.38
2023-04-16T14:53:16.417Z,1.67
2023-04-16T14:56:05.602Z,1.20
2023-04-16T14:59:06.587Z,1.98
2023-04-16T15:01:47.486Z,1.10
2023-04-16T15:04:34.628Z,0.73
2023-04-16T15:07:15.244Z,1.20
2023-04-16T15:09:42.139Z,1.10
2023-04-16T15:12:09.303Z,0.85
2023-04-16T15:14:36.435Z,0.73
2023-04-16T15:17:03.620Z,1.40
2023-04-16T15:19:30.710Z,0.60
2023-04-16T15:22:17.595Z,0.70
2023-04-16T15:25:19.603Z,1.02
2023-04-16T15:28:20.589Z,0.80
2023-04-16T15:31:01.301Z,0.75
2023-04-16T15:33:28.378Z,0.82
2023-04-16T15:35:55.404Z,0.90
2023-04-16T15:38:22.399Z,0.73
2023-04-16T15:40:49.389Z,0.40
2023-04-16T15:43:16.324Z,0.82
2023-04-16T15:45:43.273Z,0.80
2023-04-16T15:48:10.311Z,0.55
2023-04-16T15:50:37.335Z,0.60
2023-04-16T15:53:04.356Z,0.65
2023-04-16T15:55:51.610Z,0.93
2023-04-16T15:58:32.242Z,0.77
2023-04-16T16:00:59.162Z,0.90
2023-04-16T16:03:26.544Z,1.33
2023-04-16T16:05:53.642Z,2.03
2023-04-16T16:08:20.589Z,0.80
2023-04-16T16:10:47.552Z,1.20
2023-04-16T16:13:18.101Z,0.98
2023-04-16T16:15:45.317Z,1.13
2023-04-16T16:18:12.324Z,0.80
2023-04-16T16:20:59.631Z,1.17
2023-04-16T16:24:00.633Z,1.15
2023-04-16T16:26:41.811Z,1.05
2023-04-16T16:29:08.911Z,1.20
2023-04-16T16:31:36.104Z,1.20
2023-04-16T16:34:03.048Z,1.17
2023-04-16T16:36:30.033Z,0.88
2023-04-16T16:38:57.307Z,0.82
2023-04-16T16:41:24.665Z,0.77
2023-04-16T16:44:11.654Z,1.10
2023-04-16T16:46:52.273Z,0.70
2023-04-16T16:49:19.276Z,0.80
2023-04-16T16:51:47.043Z,0.82
2023-04-16T16:54:33.640Z,0.88
2023-04-16T16:57:15.401Z,0.73
2023-04-16T16:59:42.276Z,0.75
2023-04-16T17:02:09.369Z,0.60
2023-04-16T17:04:36.614Z,0.70
2023-04-16T17:07:03.640Z,0.60
2023-04-16T17:09:30.778Z,0.77
2023-04-16T17:11:57.811Z,0.55
2023-04-16T17:14:24.955Z,0.85
2023-04-16T17:16:52.055Z,0.60
2023-04-16T17:19:19.039Z,0.80
2023-04-16T17:22:06.734Z,1.10
2023-04-16T17:25:07.663Z,0.80
2023-04-16T17:27:48.306Z,0.40
2023-04-16T17:30:15.380Z,0.80
2023-04-16T17:32:42.345Z,1.00
2023-04-16T17:35:10.346Z,0.95
2023-04-16T17:37:37.377Z,1.02
2023-04-16T17:40:07.645Z,1.08
2023-04-16T17:42:35.467Z,1.40
2023-04-16T17:45:03.357Z,1.20
2023-04-16T17:47:53.732Z,1.83
2023-04-16T17:50:45.426Z,0.93
2023-04-16T17:53:12.415Z,1.00
2023-04-16T17:55:39.486Z,0.47
2023-04-16T17:58:06.428Z,0.40
2023-04-16T18:00:33.492Z,0.60
2023-04-16T18:03:00.661Z,0.55
2023-04-16T18:05:27.802Z,0.65
2023-04-16T18:07:55.708Z,0.90
2023-04-16T18:10:22.872Z,0.70
2023-04-16T18:12:49.928Z,1.00
2023-04-16T18:15:50.751Z,1.45
2023-04-16T18:18:31.528Z,0.82
2023-04-16T18:21:18.727Z,0.77
2023-04-16T18:24:19.742Z,0.68
2023-04-16T18:27:00.285Z,1.23
2023-04-16T18:29:49.264Z,0.50
2023-04-16T18:32:31.216Z,0.88
2023-04-16T18:34:58.475Z,0.60
2023-04-16T18:37:25.381Z,0.60
2023-04-16T18:39:52.449Z,2.13
2023-04-16T18:42:39.791Z,2.08
2023-04-16T18:45:21.820Z,2.17
2023-04-16T18:47:50.321Z,2.10
2023-04-16T18:50:17.439Z,1.67
2023-04-16T18:53:04.748Z,2.15
2023-04-16T18:55:45.294Z,2.38
2023-04-16T18:58:12.207Z,3.03
2023-04-16T19:00:59.914Z,3.13
2023-04-16T19:03:40.458Z,3.00
2023-04-16T19:06:07.942Z,3.20
2023-04-16T19:08:34.888Z,5.57
2023-04-16T19:11:02.059Z,7.68
2023-04-16T19:13:48.762Z,4.75
2023-04-16T19:16:29.760Z,3.15
2023-04-16T19:18:56.828Z,3.55
2023-04-16T19:21:43.762Z,3.35
2023-04-16T19:24:24.333Z,3.58
2023-04-16T19:26:51.276Z,3.10
2023-04-16T19:29:18.150Z,2.20
2023-04-16T19:31:47.216Z,3.15
2023-04-16T19:34:15.476Z,4.28
2023-04-16T19:36:42.528Z,3.78
2023-04-16T19:39:09.861Z,3.58
2023-04-16T19:41:37.063Z,3.67
2023-04-16T19:44:04.216Z,5.18
2023-04-16T19:46:31.215Z,4.15
2023-04-16T19:48:58.449Z,4.13
2023-04-16T19:51:25.728Z,4.15
2023-04-16T19:53:53.643Z,3.22
2023-04-16T19:56:20.752Z,2.85
2023-04-16T19:58:47.840Z,3.17
2023-04-16T20:01:37.887Z,3.17
2023-04-16T20:04:38.805Z,2.63
2023-04-16T20:07:20.049Z,3.17
2023-04-16T20:09:47.200Z,2.70
2023-04-16T20:12:14.511Z,2.72
2023-04-16T20:14:41.997Z,3.20
2023-04-16T20:17:10.337Z,3.25
2023-04-16T20:19:40.707Z,2.78
2023-04-16T20:22:27.802Z,2.22
2023-04-16T20:25:09.184Z,2.17
2023-04-16T20:27:36.191Z,2.22
2023-04-16T20:30:04.222Z,2.00
2023-04-16T20:32:31.214Z,2.30
2023-04-16T20:34:58.189Z,1.80
2023-04-16T20:37:25.276Z,1.35
2023-04-16T20:39:54.226Z,1.60
2023-04-16T20:42:22.811Z,1.55
2023-04-16T20:44:56.595Z,1.40
2023-04-16T20:47:24.013Z,1.23
2023-04-16T20:49:52.916Z,1.75
2023-04-16T20:52:39.831Z,1.55
2023-04-16T20:55:20.434Z,1.63
2023-04-16T20:57:47.497Z,1.75
2023-04-16T21:00:34.809Z,1.58
2023-04-16T21:03:15.462Z,1.70
2023-04-16T21:05:42.569Z,2.08
2023-04-16T21:08:09.474Z,1.67
2023-04-16T21:10:36.412Z,1.70
2023-04-16T21:13:03.352Z,1.60
2023-04-16T21:15:31.093Z,1.33
2023-04-16T21:17:58.008Z,1.60
2023-04-16T21:20:44.820Z,2.25
2023-04-16T21:23:39.004Z,1.70
2023-04-16T21:26:27.144Z,1.55
2023-04-16T21:29:09.083Z,1.70
2023-04-16T21:31:36.215Z,1.60
2023-04-16T21:34:03.198Z,1.50
2023-04-16T21:36:32.267Z,1.42
2023-04-16T21:39:20.832Z,3.55
2023-04-16T21:42:01.880Z,2.17
2023-04-16T21:44:28.837Z,2.83
2023-04-16T21:46:55.823Z,2.67
2023-04-16T21:49:22.776Z,2.13
2023-04-16T21:51:50.448Z,3.17
2023-04-16T21:54:18.683Z,2.90
2023-04-16T21:56:46.254Z,2.70
2023-04-16T21:59:33.860Z,2.70
2023-04-16T22:02:25.200Z,3.03
2023-04-16T22:04:52.488Z,2.33
2023-04-16T22:07:20.813Z,2.40
2023-04-16T22:09:47.708Z,2.65
2023-04-16T22:12:14.672Z,2.80
2023-04-16T22:14:49.090Z,2.28
2023-04-16T22:17:27.781Z,2.33
2023-04-16T22:20:15.839Z,2.60
2023-04-16T22:23:12.307Z,2.38
2023-04-16T22:25:39.312Z,2.20
2023-04-16T22:28:06.411Z,2.85
2023-04-16T22:30:33.512Z,2.50
2023-04-16T22:33:01.076Z,3.03
2023-04-16T22:35:28.160Z,2.78
2023-04-16T22:37:55.116Z,2.92
2023-04-16T22:40:22.047Z,2.90
2023-04-16T22:42:50.314Z,2.72
2023-04-16T22:45:17.451Z,2.60
2023-04-16T22:47:44.758Z,2.95
2023-04-16T22:50:12.297Z,2.35
2023-04-16T22:52:39.184Z,2.25
2023-04-16T22:55:07.023Z,3.28
2023-04-16T22:57:33.893Z,3.70
2023-04-16T23:00:01.104Z,3.28
2023-04-16T23:02:28.016Z,3.25
2023-04-16T23:04:54.949Z,3.67
2023-04-16T23:07:22.013Z,4.25
2023-04-16T23:09:49.071Z,3.38
2023-04-16T23:12:16.070Z,3.33
2023-04-16T23:15:02.861Z,2.97
2023-04-16T23:18:03.937Z,3.10
2023-04-16T23:21:06.893Z,2.92
2023-04-16T23:23:47.403Z,3.15
2023-04-16T23:26:14.559Z,3.53
2023-04-16T23:28:41.518Z,3.67
2023-04-16T23:31:08.624Z,4.40
2023-04-16T23:33:35.588Z,2.50
2023-04-16T23:36:02.557Z,3.65
2023-04-16T23:38:29.510Z,3.45
2023-04-16T23:40:56.513Z,3.70
2023-04-16T23:43:23.424Z,3.85
2023-04-16T23:45:50.632Z,3.03
2023-04-16T23:48:17.797Z,3.78
2023-04-16T23:50:44.762Z,3.22
2023-04-16T23:53:11.685Z,3.60
2023-04-16T23:55:39.520Z,3.83
2023-04-16T23:58:06.482Z,3.83
